createdAt,value
2018-08-25T00:01:06.570Z,97002.70
2018-08-25T00:03:36.373Z,97001.05
2018-08-25T00:06:06.141Z,96993.62
2018-08-25T00:08:35.854Z,96987.86
2018-08-25T00:11:05.425Z,96981.06
2018-08-25T00:13:35.620Z,96981.91
2018-08-25T00:16:05.290Z,96971.23
2018-08-25T00:18:35.082Z,96980.23
2018-08-25T00:21:04.759Z,96961.41
2018-08-25T00:23:34.430Z,96965.48
2018-08-25T00:26:04.239Z,96961.92
2018-08-25T00:28:33.784Z,96960.05
2018-08-25T00:31:08.370Z,96948.21
2018-08-25T00:33:37.908Z,96952.80
2018-08-25T00:36:07.745Z,96945.49
2018-08-25T00:38:37.258Z,96941.94
2018-08-25T00:41:07.309Z,96941.64
2018-08-25T00:43:36.992Z,96943.84
2018-08-25T00:46:06.674Z,96939.97
2018-08-25T00:48:36.291Z,96939.13
2018-08-25T00:51:06.096Z,96933.89
2018-08-25T00:53:37.108Z,96932.84
2018-08-25T00:56:07.466Z,96933.89
2018-08-25T00:58:37.122Z,96927.61
2018-08-25T01:01:06.817Z,96924.58
2018-08-25T01:03:36.590Z,96923.22
2018-08-25T01:06:06.253Z,96915.59
2018-08-25T01:08:35.962Z,96913.91
2018-08-25T01:11:06.001Z,96915.27
2018-08-25T01:13:35.569Z,96912.55
2018-08-25T01:16:05.244Z,96907.63
2018-08-25T01:18:35.057Z,96906.47
2018-08-25T01:21:04.709Z,96901.03
2018-08-25T01:23:34.831Z,96899.91
2018-08-25T01:26:04.478Z,96900.75
2018-08-25T01:28:34.046Z,96897.20
2018-08-25T01:31:04.045Z,96894.48
2018-08-25T01:33:33.650Z,96877.86
2018-08-25T01:36:03.390Z,96882.45
2018-08-25T01:38:33.070Z,96877.53
2018-08-25T01:41:02.768Z,96873.98
2018-08-25T01:43:32.659Z,96882.45
2018-08-25T01:46:02.349Z,96870.62
2018-08-25T01:48:31.937Z,96872.30
2018-08-25T01:51:01.649Z,96870.10
2018-08-25T01:53:31.390Z,96866.03
2018-08-25T01:56:01.051Z,96855.67
2018-08-25T01:58:30.809Z,96856.20
2018-08-25T02:01:00.432Z,96854.84
2018-08-25T02:03:30.253Z,96849.92
2018-08-25T02:05:59.874Z,96840.94
2018-08-25T02:08:29.654Z,96839.58
2018-08-25T02:10:59.268Z,96833.30
2018-08-25T02:13:30.646Z,96830.27
2018-08-25T02:16:00.539Z,96823.48
2018-08-25T02:18:30.708Z,96820.76
2018-08-25T02:21:00.374Z,96821.31
2018-08-25T02:23:30.157Z,96816.40
2018-08-25T02:25:59.765Z,96818.27
2018-08-25T02:28:29.981Z,96817.95
2018-08-25T02:30:59.793Z,96815.23
2018-08-25T02:33:29.541Z,96811.48
2018-08-25T02:35:59.238Z,96816.59
2018-08-25T02:38:29.416Z,96808.65
2018-08-25T02:40:59.105Z,96803.53
2018-08-25T02:43:29.057Z,96805.09
2018-08-25T02:45:58.716Z,96804.58
2018-08-25T02:48:28.960Z,96794.74
2018-08-25T02:50:58.640Z,96791.52
2018-08-25T02:53:28.439Z,96779.48
2018-08-25T02:55:58.064Z,96782.20
2018-08-25T02:58:28.289Z,96775.41
2018-08-25T03:00:58.254Z,96771.54
2018-08-25T03:03:27.902Z,96771.02
2018-08-25T03:05:58.781Z,96762.03
2018-08-25T03:08:28.643Z,96773.42
2018-08-25T03:10:58.311Z,96771.54
2018-08-25T03:13:29.087Z,96763.91
2018-08-25T03:15:58.872Z,96758.48
2018-08-25T03:18:28.623Z,96751.08
2018-08-25T03:20:58.423Z,96756.52
2018-08-25T03:23:28.275Z,96748.05
2018-08-25T03:25:58.094Z,96755.67
2018-08-25T03:28:28.780Z,96750.77
2018-08-25T03:30:58.486Z,96756.20
2018-08-25T03:33:28.215Z,96752.64
2018-08-25T03:35:58.162Z,96750.44
2018-08-25T03:38:27.897Z,96755.56
2018-08-25T03:40:57.567Z,96751.48
2018-08-25T03:43:27.969Z,96753.87
2018-08-25T03:45:57.692Z,96753.05
2018-08-25T03:48:27.729Z,96759.31
2018-08-25T03:50:57.365Z,96757.63
2018-08-25T03:53:27.177Z,96768.50
2018-08-25T03:55:58.957Z,96761.06
2018-08-25T03:58:28.992Z,96765.46
2018-08-25T04:00:58.880Z,96760.23
2018-08-25T04:03:28.479Z,96763.78
2018-08-25T04:05:58.507Z,96755.88
2018-08-25T04:08:28.170Z,96744.66
2018-08-25T04:10:57.836Z,96745.17
2018-08-25T04:13:27.553Z,96744.34
2018-08-25T04:15:58.309Z,96746.73
2018-08-25T04:18:28.300Z,96736.91
2018-08-25T04:20:58.193Z,96732.52
2018-08-25T04:23:28.487Z,96728.77
2018-08-25T04:25:58.299Z,96728.12
2018-08-25T04:28:28.008Z,96723.73
2018-08-25T04:30:57.716Z,96723.22
2018-08-25T04:33:27.400Z,96724.77
2018-08-25T04:35:57.679Z,96726.97
2018-08-25T04:38:28.410Z,96722.06
2018-08-25T04:40:58.489Z,96728.84
2018-08-25T04:43:28.646Z,96720.09
2018-08-25T04:45:58.359Z,96730.12
2018-08-25T04:48:27.973Z,96731.99
2018-08-25T04:50:58.287Z,96733.88
2018-08-25T04:53:28.415Z,96735.75
2018-08-25T04:55:58.372Z,96730.20
2018-08-25T04:58:28.462Z,96744.94
2018-08-25T05:00:58.033Z,96743.05
2018-08-25T05:03:27.779Z,96747.02
2018-08-25T05:05:57.384Z,96750.24
2018-08-25T05:08:27.183Z,96752.44
2018-08-25T05:10:57.451Z,96750.77
2018-08-25T05:13:27.231Z,96750.44
2018-08-25T05:15:56.932Z,96750.44
2018-08-25T05:18:27.025Z,96752.87
2018-08-25T05:20:56.734Z,96747.44
2018-08-25T05:23:26.464Z,96745.24
2018-08-25T05:25:56.176Z,96747.95
2018-08-25T05:28:26.036Z,96743.56
2018-08-25T05:30:56.598Z,96742.73
2018-08-25T05:33:26.318Z,96737.81
2018-08-25T05:35:56.017Z,96745.13
2018-08-25T05:38:26.152Z,96749.20
2018-08-25T05:40:56.544Z,96753.78
2018-08-25T05:43:26.534Z,96759.22
2018-08-25T05:45:56.307Z,96763.48
2018-08-25T05:48:26.339Z,96777.90
2018-08-25T05:50:56.511Z,96769.44
2018-08-25T05:53:26.564Z,96775.70
2018-08-25T05:55:56.633Z,96777.06
2018-08-25T05:58:26.666Z,96782.17
2018-08-25T06:00:56.536Z,96778.09
2018-08-25T06:03:26.302Z,96780.81
2018-08-25T06:05:56.826Z,96786.24
2018-08-25T06:08:26.596Z,96789.67
2018-08-25T06:10:56.225Z,96793.74
2018-08-25T06:13:26.274Z,96790.52
2018-08-25T06:15:56.330Z,96786.95
2018-08-25T06:18:26.065Z,96789.06
2018-08-25T06:20:55.763Z,96788.03
2018-08-25T06:23:25.463Z,96787.70
2018-08-25T06:25:55.820Z,96791.27
2018-08-25T06:28:25.730Z,96789.58
2018-08-25T06:30:55.448Z,96795.85
2018-08-25T06:33:25.296Z,96808.06
2018-08-25T06:35:55.238Z,96814.02
2018-08-25T06:38:25.335Z,96812.66
2018-08-25T06:40:55.053Z,96806.91
2018-08-25T06:43:24.813Z,96809.63
2018-08-25T06:45:59.791Z,96815.78
2018-08-25T06:48:29.524Z,96807.31
2018-08-25T06:50:59.162Z,96815.78
2018-08-25T06:53:29.223Z,96822.57
2018-08-25T06:55:59.512Z,96828.52
2018-08-25T06:58:29.577Z,96821.13
2018-08-25T07:00:59.371Z,96828.30
2018-08-25T07:03:29.098Z,96826.11
2018-08-25T07:05:58.949Z,96826.30
2018-08-25T07:08:28.710Z,96826.30
2018-08-25T07:10:58.412Z,96831.41
2018-08-25T07:13:28.371Z,96833.61
2018-08-25T07:15:58.352Z,96832.44
2018-08-25T07:18:28.757Z,96839.75
2018-08-25T07:20:59.032Z,96842.17
2018-08-25T07:23:29.870Z,96852.70
2018-08-25T07:25:59.605Z,96853.32
2018-08-25T07:28:29.508Z,96849.25
2018-08-25T07:30:59.819Z,96849.25
2018-08-25T07:33:29.519Z,96854.91
2018-08-25T07:36:00.432Z,96861.05
2018-08-25T07:38:30.113Z,96859.37
2018-08-25T07:40:59.925Z,96861.95
2018-08-25T07:43:29.792Z,96867.19
2018-08-25T07:45:59.759Z,96867.70
2018-08-25T07:48:29.571Z,96864.80
2018-08-25T07:50:59.396Z,96862.92
2018-08-25T07:53:29.427Z,96865.44
2018-08-25T07:55:59.212Z,96866.16
2018-08-25T07:58:29.116Z,96863.83
2018-08-25T08:00:58.896Z,96865.70
2018-08-25T08:03:28.622Z,96867.80
2018-08-25T08:05:58.529Z,96871.03
2018-08-25T08:08:28.421Z,96873.42
2018-08-25T08:10:58.103Z,96884.80
2018-08-25T08:13:27.778Z,96885.64
2018-08-25T08:15:57.451Z,96887.86
2018-08-25T08:18:27.142Z,96887.34
2018-08-25T08:20:56.788Z,96886.58
2018-08-25T08:23:26.519Z,96888.45
2018-08-25T08:25:56.400Z,96890.87
2018-08-25T08:28:26.178Z,96895.23
2018-08-25T08:30:55.836Z,96896.20
2018-08-25T08:33:25.686Z,96893.69
2018-08-25T08:35:55.395Z,96895.56
2018-08-25T08:38:25.236Z,96901.83
2018-08-25T08:40:56.682Z,96904.86
2018-08-25T08:43:26.440Z,96905.38
2018-08-25T08:45:56.479Z,96913.13
2018-08-25T08:48:26.114Z,96916.49
2018-08-25T08:50:55.800Z,96911.39
2018-08-25T08:53:25.442Z,96918.47
2018-08-25T08:55:55.584Z,96909.73
2018-08-25T08:58:25.274Z,96907.54
2018-08-25T09:00:56.572Z,96916.33
2018-08-25T09:03:26.308Z,96917.17
2018-08-25T09:05:56.335Z,96918.52
2018-08-25T09:08:26.692Z,96927.52
2018-08-25T09:10:58.390Z,96926.05
2018-08-25T09:13:27.872Z,96937.36
2018-08-25T09:15:57.676Z,96940.41
2018-08-25T09:18:27.370Z,96935.88
2018-08-25T09:20:57.495Z,96942.86
2018-08-25T09:23:26.976Z,96939.83
2018-08-25T09:25:56.881Z,96939.88
2018-08-25T09:28:26.396Z,96940.30
2018-08-25T09:30:55.919Z,96946.51
2018-08-25T09:33:25.424Z,96956.33
2018-08-25T09:35:54.996Z,96951.52
2018-08-25T09:38:24.452Z,96952.87
2018-08-25T09:40:54.305Z,96956.72
2018-08-25T09:43:23.811Z,96965.58
2018-08-25T09:45:53.360Z,96968.88
2018-08-25T09:48:23.404Z,96962.19
2018-08-25T09:50:52.996Z,96962.09
2018-08-25T09:53:22.740Z,96958.53
2018-08-25T09:55:52.935Z,96957.69
2018-08-25T09:58:22.673Z,96968.42
2018-08-25T10:00:57.105Z,96970.75
2018-08-25T10:03:26.748Z,96978.73
2018-08-25T10:05:56.863Z,96976.02
2018-08-25T10:08:26.436Z,96980.29
2018-08-25T10:10:55.993Z,96984.62
2018-08-25T10:13:25.480Z,96974.40
2018-08-25T10:15:55.044Z,96969.28
2018-08-25T10:18:25.101Z,96984.09
2018-08-25T10:20:54.655Z,96991.73
2018-08-25T10:23:24.199Z,96986.03
2018-08-25T10:25:53.790Z,96981.86
2018-08-25T10:28:24.408Z,96992.53
2018-08-25T10:30:53.893Z,96985.40
2018-08-25T10:33:23.495Z,96984.08
2018-08-25T10:35:53.351Z,96991.03
2018-08-25T10:38:22.903Z,96995.93
2018-08-25T10:40:53.033Z,96987.94
2018-08-25T10:43:22.868Z,96999.31
2018-08-25T10:45:52.402Z,96993.50
2018-08-25T10:48:22.023Z,96996.91
2018-08-25T10:50:51.787Z,96993.05
2018-08-25T10:53:23.365Z,96991.20
2018-08-25T10:55:52.927Z,96993.00
2018-08-25T10:58:25.670Z,96995.09
2018-08-25T11:00:57.024Z,96992.38
2018-08-25T11:03:26.946Z,96992.38
2018-08-25T11:05:56.595Z,97000.44
2018-08-25T11:08:26.449Z,97001.60
2018-08-25T11:10:56.111Z,96995.84
2018-08-25T11:13:25.716Z,96992.00
2018-08-25T11:15:55.428Z,96995.89
2018-08-25T11:18:27.023Z,97000.16
2018-08-25T11:20:58.192Z,97000.02
2018-08-25T11:23:27.964Z,97002.02
2018-08-25T11:25:57.977Z,97007.92
2018-08-25T11:28:28.005Z,96998.73
2018-08-25T11:30:57.785Z,96996.84
2018-08-25T11:33:28.194Z,96987.61
2018-08-25T11:35:57.961Z,96980.92
2018-08-25T11:38:27.756Z,96992.49
2018-08-25T11:40:57.541Z,96995.16
2018-08-25T11:43:27.158Z,96991.09
2018-08-25T11:45:56.848Z,96991.80
2018-08-25T11:48:26.502Z,97005.83
2018-08-25T11:50:57.046Z,97003.30
2018-08-25T11:53:26.566Z,96996.92
2018-08-25T11:55:57.148Z,96993.97
2018-08-25T11:58:27.205Z,96998.93
2018-08-25T12:00:57.739Z,97006.09
2018-08-25T12:03:28.908Z,97000.98
2018-08-25T12:06:00.129Z,97004.84
2018-08-25T12:08:31.638Z,96999.67
2018-08-25T12:11:01.546Z,96995.33
2018-08-25T12:13:32.112Z,97005.69
2018-08-25T12:16:01.656Z,97000.72
2018-08-25T12:18:31.267Z,97007.43
2018-08-25T12:21:00.848Z,97006.07
2018-08-25T12:23:30.328Z,97016.95
2018-08-25T12:25:59.911Z,97017.88
2018-08-25T12:28:29.788Z,97018.20
2018-08-25T12:30:59.568Z,97007.76
2018-08-25T12:33:29.636Z,97002.96
2018-08-25T12:35:59.652Z,97007.66
2018-08-25T12:38:29.399Z,97008.64
2018-08-25T12:41:02.193Z,97016.13
2018-08-25T12:43:33.874Z,97019.56
2018-08-25T12:46:03.879Z,97031.52
2018-08-25T12:48:35.354Z,97039.97
2018-08-25T12:51:06.504Z,97037.72
2018-08-25T12:53:37.924Z,97037.64
2018-08-25T12:56:07.756Z,97039.00
2018-08-25T12:58:37.261Z,97033.97
2018-08-25T13:01:07.210Z,97026.02
2018-08-25T13:03:37.092Z,97034.69
2018-08-25T13:06:07.051Z,97028.97
2018-08-25T13:08:37.225Z,97029.25
2018-08-25T13:11:07.131Z,97027.89
2018-08-25T13:13:38.673Z,97033.33
2018-08-25T13:16:09.376Z,97038.77
2018-08-25T13:21:45.330Z,97055.00
2018-08-25T13:24:15.097Z,97054.16
2018-08-25T13:26:44.965Z,97062.33
2018-08-25T13:29:14.811Z,97068.60
2018-08-25T13:31:44.590Z,97068.80
2018-08-25T13:34:14.513Z,97074.23
2018-08-25T13:36:44.664Z,97079.04
2018-08-25T13:39:14.418Z,97084.80
2018-08-25T13:41:44.245Z,97082.40
2018-08-25T13:44:14.669Z,97078.00
2018-08-25T13:46:44.706Z,97080.72
2018-08-25T13:49:14.940Z,97079.16
2018-08-25T13:51:44.911Z,97084.17
2018-08-25T13:54:14.799Z,97086.60
2018-08-25T13:56:44.489Z,97087.73
2018-08-25T13:59:14.189Z,97086.89
2018-08-25T14:01:44.019Z,97082.00
2018-08-25T14:04:13.621Z,97083.05
2018-08-25T14:06:44.114Z,97081.87
2018-08-25T14:09:13.994Z,97080.72
2018-08-25T14:11:43.867Z,97083.95
2018-08-25T14:14:14.088Z,97085.84
2018-08-25T14:16:43.750Z,97089.05
2018-08-25T14:19:13.785Z,97088.08
2018-08-25T14:21:43.537Z,97108.70
2018-08-25T14:24:13.475Z,97116.22
2018-08-25T14:26:43.511Z,97120.10
2018-08-25T14:29:13.378Z,97121.78
2018-08-25T14:31:43.199Z,97116.08
2018-08-25T14:34:13.040Z,97117.05
2018-08-25T14:36:43.525Z,97118.72
2018-08-25T14:39:14.109Z,97102.17
2018-08-25T14:41:43.793Z,97108.26
2018-08-25T14:44:14.027Z,97099.78
2018-08-25T14:46:43.725Z,97096.73
2018-08-25T14:49:17.355Z,97097.25
2018-08-25T14:51:57.055Z,97099.58
2018-08-25T14:54:26.724Z,97103.14
2018-08-25T14:56:56.269Z,97095.81
2018-08-25T15:00:55.291Z,97097.89
2018-08-25T15:03:25.089Z,97104.17
2018-08-25T15:05:54.911Z,97099.90
2018-08-25T15:08:24.738Z,97107.66
2018-08-25T15:10:54.532Z,97119.06
2018-08-25T15:13:26.308Z,97118.09
2018-08-25T15:15:58.342Z,97132.22
2018-08-25T15:18:31.237Z,97121.73
2018-08-25T15:21:00.855Z,97136.08
2018-08-25T15:23:30.651Z,97141.40
2018-08-25T15:26:00.703Z,97153.12
2018-08-25T15:28:31.013Z,97145.60
2018-08-25T15:31:00.970Z,97154.38
2018-08-25T15:33:30.989Z,97151.56
2018-08-25T15:36:03.901Z,97155.32
2018-08-25T15:38:42.549Z,97148.32
2018-08-25T15:41:13.798Z,97155.97
2018-08-25T15:43:46.011Z,97155.73
2018-08-25T15:46:15.758Z,97154.60
2018-08-25T15:48:45.539Z,97157.00
2018-08-25T15:51:17.255Z,97161.99
2018-08-25T15:53:47.288Z,97163.84
2018-08-25T15:56:20.584Z,97174.23
2018-08-25T15:58:51.289Z,97173.52
2018-08-25T16:01:32.798Z,97184.91
2018-08-25T16:04:03.426Z,97184.39
2018-08-25T16:06:33.229Z,97179.70
2018-08-25T16:09:03.588Z,97179.92
2018-08-25T16:11:33.717Z,97183.03
2018-08-25T16:14:03.260Z,97178.24
2018-08-25T16:16:32.796Z,97178.77
2018-08-25T16:19:07.256Z,97186.08
2018-08-25T16:23:11.077Z,97180.31
2018-08-25T16:25:45.732Z,97187.86
2018-08-25T16:28:15.380Z,97188.37
2018-08-25T16:30:46.503Z,97191.84
2018-08-25T16:33:22.927Z,97191.42
2018-08-25T16:35:55.834Z,97199.52
2018-08-25T16:38:25.931Z,97199.58
2018-08-25T16:40:55.489Z,97201.69
2018-08-25T16:43:26.037Z,97195.92
2018-08-25T16:45:56.631Z,97210.37
2018-08-25T16:48:26.712Z,97207.84
2018-08-25T16:50:56.383Z,97210.56
2018-08-25T16:53:27.685Z,97205.64
2018-08-25T16:55:58.201Z,97208.36
2018-08-25T16:58:34.679Z,97208.23
2018-08-25T17:01:04.492Z,97216.03
2018-08-25T17:03:34.201Z,97222.70
2018-08-25T17:06:04.547Z,97215.39
2018-08-25T17:08:34.365Z,97222.51
2018-08-25T17:11:10.181Z,97216.97
2018-08-25T17:13:39.855Z,97217.48
2018-08-25T17:16:09.691Z,97221.25
2018-08-25T17:18:40.025Z,97223.12
2018-08-25T17:21:11.582Z,97230.63
2018-08-25T17:23:42.554Z,97227.59
2018-08-25T17:26:12.488Z,97229.98
2018-08-25T17:28:44.636Z,97233.87
2018-08-25T17:31:15.528Z,97234.91
2018-08-25T17:33:45.574Z,97240.67
2018-08-25T17:36:15.902Z,97237.82
2018-08-25T17:38:45.818Z,97250.05
2018-08-25T17:41:15.348Z,97241.48
2018-08-25T17:43:49.256Z,97247.95
2018-08-25T17:46:23.596Z,97252.55
2018-08-25T17:48:54.216Z,97256.81
2018-08-25T17:51:25.142Z,97260.57
2018-08-25T17:53:55.533Z,97258.89
2018-08-25T17:56:26.656Z,97264.00
2018-08-25T17:58:58.713Z,97277.59
2018-08-25T18:01:29.618Z,97277.30
2018-08-25T18:03:59.204Z,97271.53
2018-08-25T18:06:29.027Z,97280.21
2018-08-25T18:08:58.724Z,97283.45
2018-08-25T18:11:28.443Z,97279.56
2018-08-25T18:13:59.297Z,97287.06
2018-08-25T18:16:28.819Z,97297.75
2018-08-25T18:19:00.728Z,97296.58
2018-08-25T18:21:31.057Z,97299.81
2018-08-25T18:24:01.354Z,97301.59
2018-08-25T18:26:32.232Z,97303.24
2018-08-25T18:29:01.778Z,97311.92
2018-08-25T18:31:31.538Z,97312.98
2018-08-25T18:34:01.558Z,97316.73
2018-08-25T18:36:31.480Z,97322.17
2018-08-25T18:39:01.024Z,97332.20
2018-08-25T18:41:31.122Z,97331.03
2018-08-25T18:44:00.933Z,97332.72
2018-08-25T18:46:32.518Z,97335.63
2018-08-25T18:49:03.702Z,97335.63
2018-08-25T18:51:33.248Z,97338.02
2018-08-25T18:54:03.677Z,97335.81
2018-08-25T18:56:33.828Z,97334.97
2018-08-25T18:59:03.651Z,97341.44
2018-08-25T19:01:34.142Z,97342.28
2018-08-25T19:04:04.203Z,97340.27
2018-08-25T19:06:34.173Z,97344.34
2018-08-25T19:09:04.416Z,97348.97
2018-08-25T19:11:34.716Z,97353.56
2018-08-25T19:14:05.612Z,97349.16
2018-08-25T19:16:39.420Z,97353.42
2018-08-25T19:19:09.168Z,97360.73
2018-08-25T19:21:38.803Z,97369.73
2018-08-25T19:24:09.089Z,97364.30
2018-08-25T19:26:39.076Z,97373.81
2018-08-25T19:29:09.349Z,97380.28
2018-08-25T19:31:39.563Z,97378.59
2018-08-25T19:34:09.924Z,97378.08
2018-08-25T19:36:39.588Z,97371.47
2018-08-25T19:39:10.566Z,97373.86
2018-08-25T19:41:40.328Z,97374.89
2018-08-25T19:44:10.558Z,97376.25
2018-08-25T19:46:41.148Z,97381.69
2018-08-25T19:49:13.306Z,97386.61
2018-08-25T19:51:43.189Z,97382.20
2018-08-25T19:54:13.187Z,97378.86
2018-08-25T19:56:42.840Z,97390.06
2018-08-25T19:59:13.451Z,97393.30
2018-08-25T20:01:43.112Z,97395.69
2018-08-25T20:04:12.897Z,97395.69
2018-08-25T20:06:42.920Z,97392.64
2018-08-25T20:09:13.096Z,97400.28
2018-08-25T20:11:43.907Z,97396.39
2018-08-25T20:14:14.126Z,97397.41
2018-08-25T20:16:44.506Z,97397.41
2018-08-25T20:19:14.296Z,97407.77
2018-08-25T20:21:44.027Z,97408.28
2018-08-25T20:24:22.259Z,97409.31
2018-08-25T20:27:02.023Z,97410.67
2018-08-25T20:29:31.713Z,97416.11
2018-08-25T20:32:02.866Z,97412.03
2018-08-25T20:34:36.663Z,97419.02
2018-08-25T20:37:12.531Z,97419.53
2018-08-25T20:39:42.966Z,97425.81
2018-08-25T20:42:12.842Z,97426.84
2018-08-25T20:44:42.474Z,97426.84
2018-08-25T20:47:13.870Z,97428.20
2018-08-25T20:49:44.124Z,97427.57
2018-08-25T20:52:13.896Z,97427.05
2018-08-25T20:54:43.404Z,97433.34
2018-08-25T20:57:13.013Z,97434.36
2018-08-25T20:59:43.360Z,97433.00
2018-08-25T21:02:14.845Z,97435.91
2018-08-25T21:04:44.907Z,97439.14
2018-08-25T21:07:15.232Z,97432.67
2018-08-25T21:09:45.062Z,97436.94
2018-08-25T21:12:14.608Z,97441.53
2018-08-25T21:14:44.527Z,97441.02
2018-08-25T21:17:14.312Z,97441.20
2018-08-25T21:19:43.936Z,97435.25
2018-08-25T21:22:13.795Z,97437.97
2018-08-25T21:24:43.751Z,97439.52
2018-08-25T21:27:16.222Z,97432.72
2018-08-25T21:29:45.954Z,97438.16
2018-08-25T21:32:17.059Z,97431.87
2018-08-25T21:34:47.227Z,97431.03
2018-08-25T21:37:18.779Z,97428.31
2018-08-25T21:39:49.334Z,97432.06
2018-08-25T21:42:20.070Z,97434.77
2018-08-25T21:44:49.683Z,97430.91
2018-08-25T21:47:22.510Z,97437.71
2018-08-25T21:49:52.691Z,97441.78
2018-08-25T21:52:23.993Z,97436.02
2018-08-25T21:54:53.913Z,97438.73
2018-08-25T21:57:23.656Z,97437.89
2018-08-25T21:59:53.808Z,97437.05
2018-08-25T22:02:24.207Z,97433.48
2018-08-25T22:04:57.167Z,97431.62
2018-08-25T22:07:27.365Z,97436.20
2018-08-25T22:09:57.059Z,97436.72
2018-08-25T22:12:26.627Z,97440.28
2018-08-25T22:14:56.659Z,97441.83
2018-08-25T22:17:26.533Z,97439.11
2018-08-25T22:19:56.547Z,97440.47
2018-08-25T22:22:26.416Z,97440.98
2018-08-25T22:24:57.015Z,97442.85
2018-08-25T22:27:29.100Z,97448.29
2018-08-25T22:29:58.663Z,97446.41
2018-08-25T22:32:28.140Z,97449.13
2018-08-25T22:34:58.182Z,97450.67
2018-08-25T22:37:28.363Z,97454.75
2018-08-25T22:39:57.960Z,97456.44
2018-08-25T22:42:29.161Z,97454.42
2018-08-25T22:44:59.075Z,97453.39
2018-08-25T22:47:28.614Z,97458.31
2018-08-25T22:49:58.496Z,97453.58
2018-08-25T22:52:34.184Z,97449.50
2018-08-25T22:55:04.371Z,97457.14
2018-08-25T22:57:45.717Z,97453.06
2018-08-25T23:00:19.272Z,97457.14
2018-08-25T23:02:49.331Z,97459.85
2018-08-25T23:05:19.504Z,97452.77
2018-08-25T23:07:51.445Z,97454.13
2018-08-25T23:10:21.650Z,97455.27
2018-08-25T23:12:51.240Z,97456.63
2018-08-25T23:15:21.036Z,97462.56
2018-08-25T23:17:51.172Z,97456.84
2018-08-25T23:20:21.124Z,97459.55
2018-08-25T23:22:51.364Z,97464.44
2018-08-25T23:25:21.515Z,97467.16
2018-08-25T23:27:54.437Z,97463.30
2018-08-25T23:30:24.419Z,97468.22
2018-08-25T23:32:54.367Z,97470.94
2018-08-25T23:35:28.162Z,97475.31
2018-08-25T23:37:58.148Z,97478.24
2018-08-25T23:40:28.114Z,97476.88
2018-08-25T23:42:58.368Z,97476.37
2018-08-25T23:45:28.377Z,97479.27
2018-08-25T23:47:58.061Z,97478.75
2018-08-25T23:50:27.800Z,97476.55
2018-08-25T23:52:57.709Z,97478.42
2018-08-25T23:55:27.420Z,97473.17
2018-08-25T23:58:01.760Z,97479.27
